Date,TemperatureHighF,TemperatureAvgF,TemperatureLowF,DewpointHighF,DewpointAvgF,DewpointLowF,HumidityHigh,HumidityAvg,HumidityLow,PressureMaxIn,PressureMinIn,WindSpeedMaxMPH,WindSpeedAvgMPH,GustSpeedMaxMPH,PrecipitationSumIn
2013-4-1,43.0,37.7,27.0,40.0,26.9,11.0,97,68,37,0.00,40.00,7,3,23,0.15
2013-4-2,33.0,26.9,21.0,20.0,12.1,6.0,86,56,36,0.00,40.00,6,3,21,0.03
2013-4-3,42.0,31.1,23.0,15.0,9.3,6.0,60,41,24,0.00,40.00,6,3,18,0.02
2013-4-4,52.0,37.2,24.0,21.0,15.6,12.0,71,44,23,0.00,40.00,6,3,21,0.00
2013-4-5,43.0,35.4,27.0,33.0,22.0,11.0,91,60,38,0.00,40.00,3,1,12,0.01
2013-4-6,43.0,31.3,17.0,15.0,8.4,2.0,72,42,19,0.00,40.00,3,1,11,0.01
2013-4-7,64.0,48.3,28.0,40.0,28.4,14.0,61,47,27,0.00,40.00,6,3,23,0.02
2013-4-8,57.0,44.7,38.0,35.0,31.5,29.0,78,61,36,0.00,40.00,3,1,15,0.01
2013-4-9,49.0,42.0,37.0,41.0,38.8,36.0,97,89,71,0.00,40.00,3,1,11,0.38
2013-4-10,48.0,44.2,35.0,43.0,38.7,32.0,98,83,62,0.00,40.00,1,0,6,0.12
2013-4-11,42.0,33.1,26.0,30.0,19.3,12.0,93,60,35,0.00,40.00,3,1,9,0.00
2013-4-12,34.0,32.1,29.0,32.0,26.3,11.0,97,82,38,0.00,40.00,3,2,11,0.97
2013-4-13,45.0,40.9,36.0,41.0,35.7,32.0,98,82,69,0.00,40.00,4,2,17,0.34
2013-4-14,47.0,38.8,29.0,36.0,31.4,26.0,96,76,47,0.00,40.00,4,2,13,0.07
2013-4-15,67.0,44.3,26.0,39.0,31.2,25.0,95,66,29,0.00,40.00,3,1,12,0.01
2013-4-16,64.0,56.1,44.0,55.0,45.3,35.0,95,69,45,0.00,40.00,6,3,19,0.22
2013-4-17,57.0,43.5,30.0,38.0,30.4,22.0,96,65,26,0.00,40.00,4,1,12,0.04
2013-4-18,74.0,52.0,34.0,50.0,39.4,28.0,93,66,37,0.00,40.00,6,2,22,0.05
2013-4-19,78.0,64.9,43.0,56.0,50.7,37.0,91,62,43,0.00,40.00,8,4,28,0.18
2013-4-20,49.0,40.9,31.0,36.0,27.1,18.0,75,58,42,0.00,40.00,6,4,26,0.18
2013-4-21,48.0,34.6,22.0,18.0,15.0,11.0,83,48,24,0.00,40.00,3,1,11,0.01
2013-4-22,64.0,43.9,24.0,24.0,16.5,6.0,80,43,11,0.00,40.00,4,1,12,0.00
2013-4-23,64.0,50.0,31.0,37.0,26.4,19.0,70,42,24,0.00,40.00,3,2,12,0.00
2013-4-24,77.0,59.4,40.0,51.0,41.2,36.0,85,55,26,0.00,40.00,6,2,29,0.02
2013-4-25,56.0,44.4,34.0,41.0,30.0,23.0,90,62,28,0.00,40.00,6,2,21,0.07
2013-4-26,58.0,43.7,34.0,41.0,33.7,26.0,95,71,34,0.00,40.00,2,0,10,0.16
2013-4-27,62.0,44.1,28.0,40.0,30.7,-99.9,96,68,32,0.00,40.00,3,1,8,0.01
2013-4-28,77.0,55.5,32.0,42.0,37.7,31.0,95,59,26,0.00,40.00,2,1,10,0.00
2013-4-29,64.0,56.6,48.0,45.0,42.8,40.0,82,61,44,0.00,40.00,4,1,15,0.00
2013-4-30,73.0,62.0,52.0,54.0,49.6,45.0,94,67,40,0.00,40.00,3,1,9,0.00